Keum Yang Family — DSNO8 — position and weather

sailwx.info

Track history (hours):
 
Tides and Currents Weather Stations Pressure Air Temp Water Temp Dewpoint Dewpoint Depression Visibility Wind Speed Wind Dir Waves Ship Positions

Keum Yang Family

Last reported at 2016-Jun-24 10:33 UTC. Time now 2016-Jul-29 00:10 UTC.
Position N 34°36' E 135°04'.
Warning: this ship's position is 34 days out of date.

Length 95 m; draft 4.6 m.

Type: Cargo ship. MMSI: 441416000.

Date/timePositionNaut miles runAvg speedWind from/ knotsBaromVisibWave heightAir tempDewpointWater temp
2016-Jun-24 10:33N 34°36' E 135°04'1010.1
2016-Jun-24 09:33N 34°33' E 135°16'7 6.8
2016-Jun-24 08:33N 34°31' E 135°23'0 0.0
2016-Jun-24 07:33N 34°31' E 135°23'0 0.0
2016-Jun-24 04:33N 34°31' E 135°23'0 0.0
2016-Jun-24 03:27N 34°31' E 135°23'0 0.0
2016-Jun-24 02:21N 34°31' E 135°23'0 0.0
2016-Jun-24 01:33N 34°31' E 135°23'0 0.0
2016-Jun-24 00:21N 34°31' E 135°23'0 0.0
2016-Jun-23 23:33N 34°31' E 135°23'0 0.0
2016-Jun-23 22:33N 34°31' E 135°23'2 2.1
2016-Jun-23 21:30N 34°32' E 135°22'0 0.0
2016-Jun-23 13:33N 34°32' E 135°22'0 0.0
2016-Jun-23 12:27N 34°32' E 135°22'0 0.0
2016-Jun-23 08:33N 34°32' E 135°22'0 0.0
2016-Jun-23 07:33N 34°32' E 135°22'0 0.0
2016-Jun-23 05:17N 34°32' E 135°22'0 0.0
2016-Jun-23 04:12N 34°32' E 135°22'0 0.6
2016-Jun-23 03:30N 34°32' E 135°21'910.0
2016-Jun-23 02:33N 34°34' E 135°10'10 9.7
2016-Jun-23 01:33N 34°37' E 134°59'  
Track history (hours):
 
Tides and Currents Weather Stations Pressure Air Temp Water Temp Dewpoint Dewpoint Depression Visibility Wind Speed Wind Dir Waves Ship Positions

Keum Yang Family

Last reported at 2016-Jun-24 10:33 UTC. Time now 2016-Jul-29 00:10 UTC.
Position N 34°36' E 135°04'.
Warning: this ship's position is 34 days out of date.

Length 95 m; draft 4.6 m.

Type: Cargo ship. MMSI: 441416000.

Date/timePositionNaut miles runAvg speedWind from/ knotsBaromVisibWave heightAir tempDewpointWater temp
2016-Jun-24 10:33N 34°36' E 135°04'1010.1
2016-Jun-24 09:33N 34°33' E 135°16'7 6.8
2016-Jun-24 08:33N 34°31' E 135°23'0 0.0
2016-Jun-24 07:33N 34°31' E 135°23'0 0.0
2016-Jun-24 04:33N 34°31' E 135°23'0 0.0
2016-Jun-24 03:27N 34°31' E 135°23'0 0.0
2016-Jun-24 02:21N 34°31' E 135°23'0 0.0
2016-Jun-24 01:33N 34°31' E 135°23'0 0.0
2016-Jun-24 00:21N 34°31' E 135°23'0 0.0
2016-Jun-23 23:33N 34°31' E 135°23'0 0.0
2016-Jun-23 22:33N 34°31' E 135°23'2 2.1
2016-Jun-23 21:30N 34°32' E 135°22'0 0.0
2016-Jun-23 13:33N 34°32' E 135°22'0 0.0
2016-Jun-23 12:27N 34°32' E 135°22'0 0.0
2016-Jun-23 08:33N 34°32' E 135°22'0 0.0
2016-Jun-23 07:33N 34°32' E 135°22'0 0.0
2016-Jun-23 05:17N 34°32' E 135°22'0 0.0
2016-Jun-23 04:12N 34°32' E 135°22'0 0.6
2016-Jun-23 03:30N 34°32' E 135°21'910.0
2016-Jun-23 02:33N 34°34' E 135°10'10 9.7
2016-Jun-23 01:33N 34°37' E 134°59'  

Dump ship's entire track history